sensor_id;sensor_type;location;lat;lon;timestamp;P1;durP1;ratioP1;P2;durP2;ratioP2
73841;SDS011;62184;52.006;5.924;2023-07-31T00:01:36;11.00;;;10.10;;
73841;SDS011;62184;52.006;5.924;2023-07-31T00:04:02;11.10;;;10.20;;
73841;SDS011;62184;52.006;5.924;2023-07-31T00:06:29;5.22;;;3.13;;
73841;SDS011;62184;52.006;5.924;2023-07-31T00:08:55;4.72;;;1.48;;
73841;SDS011;62184;52.006;5.924;2023-07-31T00:11:22;4.97;;;1.42;;
73841;SDS011;62184;52.006;5.924;2023-07-31T00:13:49;5.28;;;2.00;;
73841;SDS011;62184;52.006;5.924;2023-07-31T00:16:18;5.68;;;2.20;;
73841;SDS011;62184;52.006;5.924;2023-07-31T00:18:44;5.90;;;2.00;;
73841;SDS011;62184;52.006;5.924;2023-07-31T00:21:11;7.40;;;2.50;;
73841;SDS011;62184;52.006;5.924;2023-07-31T00:23:37;7.22;;;2.60;;
73841;SDS011;62184;52.006;5.924;2023-07-31T00:26:04;5.93;;;2.20;;
73841;SDS011;62184;52.006;5.924;2023-07-31T00:28:30;6.97;;;2.40;;
73841;SDS011;62184;52.006;5.924;2023-07-31T00:30:57;7.35;;;2.60;;
73841;SDS011;62184;52.006;5.924;2023-07-31T00:33:26;7.57;;;2.42;;
73841;SDS011;62184;52.006;5.924;2023-07-31T00:35:52;7.65;;;2.67;;
73841;SDS011;62184;52.006;5.924;2023-07-31T00:38:18;7.43;;;2.78;;
73841;SDS011;62184;52.006;5.924;2023-07-31T00:40:45;10.15;;;3.60;;
73841;SDS011;62184;52.006;5.924;2023-07-31T00:43:11;10.45;;;4.00;;
73841;SDS011;62184;52.006;5.924;2023-07-31T00:45:38;12.57;;;4.50;;
73841;SDS011;62184;52.006;5.924;2023-07-31T00:48:05;13.65;;;4.50;;
73841;SDS011;62184;52.006;5.924;2023-07-31T00:50:35;14.05;;;4.85;;
73841;SDS011;62184;52.006;5.924;2023-07-31T00:53:01;16.25;;;5.70;;
73841;SDS011;62184;52.006;5.924;2023-07-31T00:55:28;18.42;;;6.25;;
73841;SDS011;62184;52.006;5.924;2023-07-31T00:57:55;19.67;;;6.50;;
73841;SDS011;62184;52.006;5.924;2023-07-31T01:00:22;23.98;;;7.47;;
73841;SDS011;62184;52.006;5.924;2023-07-31T01:02:49;23.73;;;7.55;;
73841;SDS011;62184;52.006;5.924;2023-07-31T01:05:17;26.33;;;8.00;;
73841;SDS011;62184;52.006;5.924;2023-07-31T01:07:59;29.45;;;8.38;;
73841;SDS011;62184;52.006;5.924;2023-07-31T01:10:40;33.40;;;9.05;;
73841;SDS011;62184;52.006;5.924;2023-07-31T01:13:16;31.52;;;9.77;;
73841;SDS011;62184;52.006;5.924;2023-07-31T01:15:44;35.33;;;9.68;;
73841;SDS011;62184;52.006;5.924;2023-07-31T01:18:11;38.85;;;10.75;;
73841;SDS011;62184;52.006;5.924;2023-07-31T01:20:38;40.90;;;11.10;;
73841;SDS011;62184;52.006;5.924;2023-07-31T01:23:16;47.83;;;11.25;;
73841;SDS011;62184;52.006;5.924;2023-07-31T01:26:20;50.00;;;11.90;;
73841;SDS011;62184;52.006;5.924;2023-07-31T01:28:54;43.40;;;11.32;;
73841;SDS011;62184;52.006;5.924;2023-07-31T01:31:28;45.85;;;11.07;;
73841;SDS011;62184;52.006;5.924;2023-07-31T01:33:58;40.25;;;10.88;;
73841;SDS011;62184;52.006;5.924;2023-07-31T01:36:27;41.85;;;11.05;;
73841;SDS011;62184;52.006;5.924;2023-07-31T01:38:57;42.27;;;11.27;;
73841;SDS011;62184;52.006;5.924;2023-07-31T01:41:27;45.35;;;10.73;;
73841;SDS011;62184;52.006;5.924;2023-07-31T01:43:54;39.60;;;10.52;;
73841;SDS011;62184;52.006;5.924;2023-07-31T01:46:20;41.13;;;10.40;;
73841;SDS011;62184;52.006;5.924;2023-07-31T01:48:47;42.70;;;10.98;;
73841;SDS011;62184;52.006;5.924;2023-07-31T01:51:13;39.78;;;10.48;;
73841;SDS011;62184;52.006;5.924;2023-07-31T01:53:40;41.30;;;9.88;;
73841;SDS011;62184;52.006;5.924;2023-07-31T01:56:06;37.50;;;10.65;;
73841;SDS011;62184;52.006;5.924;2023-07-31T01:58:35;38.97;;;10.00;;
73841;SDS011;62184;52.006;5.924;2023-07-31T02:01:01;36.13;;;9.90;;
73841;SDS011;62184;52.006;5.924;2023-07-31T02:03:28;34.45;;;9.43;;
73841;SDS011;62184;52.006;5.924;2023-07-31T02:05:54;33.63;;;9.75;;
73841;SDS011;62184;52.006;5.924;2023-07-31T02:08:21;33.40;;;9.15;;
73841;SDS011;62184;52.006;5.924;2023-07-31T02:10:47;35.53;;;10.57;;
73841;SDS011;62184;52.006;5.924;2023-07-31T02:13:14;39.03;;;10.02;;
73841;SDS011;62184;52.006;5.924;2023-07-31T02:15:43;30.58;;;9.65;;
73841;SDS011;62184;52.006;5.924;2023-07-31T02:18:11;36.17;;;9.75;;
73841;SDS011;62184;52.006;5.924;2023-07-31T02:20:37;32.72;;;9.93;;
73841;SDS011;62184;52.006;5.924;2023-07-31T02:23:03;32.22;;;9.00;;
73841;SDS011;62184;52.006;5.924;2023-07-31T02:25:30;37.43;;;9.60;;
73841;SDS011;62184;52.006;5.924;2023-07-31T02:27:56;33.20;;;9.23;;
73841;SDS011;62184;52.006;5.924;2023-07-31T02:30:23;33.22;;;9.40;;
73841;SDS011;62184;52.006;5.924;2023-07-31T02:32:52;31.90;;;9.50;;
73841;SDS011;62184;52.006;5.924;2023-07-31T02:35:18;33.97;;;8.73;;
73841;SDS011;62184;52.006;5.924;2023-07-31T02:37:45;30.77;;;8.80;;
73841;SDS011;62184;52.006;5.924;2023-07-31T02:40:12;28.80;;;8.05;;
73841;SDS011;62184;52.006;5.924;2023-07-31T02:42:39;27.25;;;7.75;;
73841;SDS011;62184;52.006;5.924;2023-07-31T02:45:06;23.47;;;7.33;;
73841;SDS011;62184;52.006;5.924;2023-07-31T02:47:34;22.90;;;6.28;;
73841;SDS011;62184;52.006;5.924;2023-07-31T02:50:03;26.80;;;6.72;;
73841;SDS011;62184;52.006;5.924;2023-07-31T02:52:31;25.73;;;7.10;;
73841;SDS011;62184;52.006;5.924;2023-07-31T02:54:58;26.03;;;7.20;;
73841;SDS011;62184;52.006;5.924;2023-07-31T02:57:24;28.02;;;7.93;;
73841;SDS011;62184;52.006;5.924;2023-07-31T02:59:51;30.58;;;8.48;;
73841;SDS011;62184;52.006;5.924;2023-07-31T03:02:17;33.28;;;8.93;;
73841;SDS011;62184;52.006;5.924;2023-07-31T03:04:44;35.30;;;9.00;;
73841;SDS011;62184;52.006;5.924;2023-07-31T03:07:13;29.80;;;8.38;;
73841;SDS011;62184;52.006;5.924;2023-07-31T03:09:39;28.50;;;8.47;;
73841;SDS011;62184;52.006;5.924;2023-07-31T03:12:06;33.15;;;8.38;;
73841;SDS011;62184;52.006;5.924;2023-07-31T03:14:34;30.40;;;8.75;;
73841;SDS011;62184;52.006;5.924;2023-07-31T03:17:00;34.20;;;8.15;;
73841;SDS011;62184;52.006;5.924;2023-07-31T03:19:27;30.65;;;8.30;;
73841;SDS011;62184;52.006;5.924;2023-07-31T03:21:56;34.90;;;8.98;;
73841;SDS011;62184;52.006;5.924;2023-07-31T03:24:25;31.70;;;8.70;;
73841;SDS011;62184;52.006;5.924;2023-07-31T03:26:53;30.17;;;8.20;;
73841;SDS011;62184;52.006;5.924;2023-07-31T03:29:20;30.30;;;8.32;;
73841;SDS011;62184;52.006;5.924;2023-07-31T03:31:46;34.42;;;8.43;;
73841;SDS011;62184;52.006;5.924;2023-07-31T03:34:13;29.60;;;8.67;;
73841;SDS011;62184;52.006;5.924;2023-07-31T03:36:39;26.90;;;7.80;;
73841;SDS011;62184;52.006;5.924;2023-07-31T03:39:06;28.42;;;8.07;;
73841;SDS011;62184;52.006;5.924;2023-07-31T03:41:35;29.80;;;8.18;;
73841;SDS011;62184;52.006;5.924;2023-07-31T03:44:02;30.52;;;7.85;;
73841;SDS011;62184;52.006;5.924;2023-07-31T03:46:28;23.50;;;7.67;;
73841;SDS011;62184;52.006;5.924;2023-07-31T03:48:55;27.02;;;7.53;;
73841;SDS011;62184;52.006;5.924;2023-07-31T03:51:21;27.90;;;7.35;;
73841;SDS011;62184;52.006;5.924;2023-07-31T03:53:48;25.90;;;7.32;;
73841;SDS011;62184;52.006;5.924;2023-07-31T03:56:14;28.98;;;7.35;;
73841;SDS011;62184;52.006;5.924;2023-07-31T03:58:44;26.93;;;7.30;;
73841;SDS011;62184;52.006;5.924;2023-07-31T04:01:10;27.15;;;7.13;;
73841;SDS011;62184;52.006;5.924;2023-07-31T04:03:37;26.07;;;7.03;;
73841;SDS011;62184;52.006;5.924;2023-07-31T04:06:03;22.42;;;7.18;;
73841;SDS011;62184;52.006;5.924;2023-07-31T04:08:30;26.23;;;7.38;;
73841;SDS011;62184;52.006;5.924;2023-07-31T04:10:56;25.58;;;7.35;;
73841;SDS011;62184;52.006;5.924;2023-07-31T04:13:23;21.15;;;6.88;;
73841;SDS011;62184;52.006;5.924;2023-07-31T04:15:52;21.90;;;7.17;;
73841;SDS011;62184;52.006;5.924;2023-07-31T04:18:18;25.52;;;7.07;;
73841;SDS011;62184;52.006;5.924;2023-07-31T04:20:45;24.20;;;6.50;;
73841;SDS011;62184;52.006;5.924;2023-07-31T04:23:11;23.65;;;6.65;;
73841;SDS011;62184;52.006;5.924;2023-07-31T04:25:37;26.02;;;6.90;;
73841;SDS011;62184;52.006;5.924;2023-07-31T04:28:04;25.25;;;6.93;;
73841;SDS011;62184;52.006;5.924;2023-07-31T04:30:30;23.88;;;6.95;;
73841;SDS011;62184;52.006;5.924;2023-07-31T04:33:00;20.87;;;6.63;;
73841;SDS011;62184;52.006;5.924;2023-07-31T04:35:26;24.63;;;6.70;;
73841;SDS011;62184;52.006;5.924;2023-07-31T04:37:53;22.45;;;6.55;;
73841;SDS011;62184;52.006;5.924;2023-07-31T04:40:20;22.13;;;6.40;;
73841;SDS011;62184;52.006;5.924;2023-07-31T04:42:47;23.75;;;7.13;;
73841;SDS011;62184;52.006;5.924;2023-07-31T04:45:13;20.83;;;6.83;;
73841;SDS011;62184;52.006;5.924;2023-07-31T04:47:40;21.98;;;6.70;;
73841;SDS011;62184;52.006;5.924;2023-07-31T04:50:10;22.70;;;6.80;;
73841;SDS011;62184;52.006;5.924;2023-07-31T04:52:36;22.67;;;6.83;;
73841;SDS011;62184;52.006;5.924;2023-07-31T04:55:03;22.95;;;6.60;;
73841;SDS011;62184;52.006;5.924;2023-07-31T04:57:30;22.23;;;6.50;;
73841;SDS011;62184;52.006;5.924;2023-07-31T04:59:57;21.98;;;6.78;;
73841;SDS011;62184;52.006;5.924;2023-07-31T05:02:23;22.02;;;6.70;;
73841;SDS011;62184;52.006;5.924;2023-07-31T05:04:50;20.67;;;6.53;;
73841;SDS011;62184;52.006;5.924;2023-07-31T05:07:19;17.95;;;6.22;;
73841;SDS011;62184;52.006;5.924;2023-07-31T05:09:45;22.13;;;6.78;;
73841;SDS011;62184;52.006;5.924;2023-07-31T05:12:12;19.03;;;6.80;;
73841;SDS011;62184;52.006;5.924;2023-07-31T05:14:38;19.30;;;6.38;;
73841;SDS011;62184;52.006;5.924;2023-07-31T05:17:05;22.25;;;6.85;;
73841;SDS011;62184;52.006;5.924;2023-07-31T05:19:31;23.73;;;6.93;;
73841;SDS011;62184;52.006;5.924;2023-07-31T05:21:58;19.23;;;6.60;;
73841;SDS011;62184;52.006;5.924;2023-07-31T05:24:27;20.75;;;6.65;;
73841;SDS011;62184;52.006;5.924;2023-07-31T05:26:53;21.67;;;6.90;;
73841;SDS011;62184;52.006;5.924;2023-07-31T05:29:20;19.90;;;6.80;;
73841;SDS011;62184;52.006;5.924;2023-07-31T05:31:46;20.77;;;6.55;;
73841;SDS011;62184;52.006;5.924;2023-07-31T05:34:13;18.90;;;6.38;;
73841;SDS011;62184;52.006;5.924;2023-07-31T05:36:39;21.50;;;6.30;;
73841;SDS011;62184;52.006;5.924;2023-07-31T05:39:06;18.20;;;6.20;;
73841;SDS011;62184;52.006;5.924;2023-07-31T05:41:35;21.05;;;6.75;;
73841;SDS011;62184;52.006;5.924;2023-07-31T05:44:02;19.38;;;7.22;;
73841;SDS011;62184;52.006;5.924;2023-07-31T05:46:29;20.60;;;7.40;;
73841;SDS011;62184;52.006;5.924;2023-07-31T05:48:55;20.60;;;6.70;;
73841;SDS011;62184;52.006;5.924;2023-07-31T05:51:22;22.92;;;7.75;;
73841;SDS011;62184;52.006;5.924;2023-07-31T05:53:48;20.42;;;7.00;;
73841;SDS011;62184;52.006;5.924;2023-07-31T05:56:15;18.23;;;7.23;;
73841;SDS011;62184;52.006;5.924;2023-07-31T05:58:44;24.38;;;6.95;;
73841;SDS011;62184;52.006;5.924;2023-07-31T06:01:10;23.30;;;6.63;;
73841;SDS011;62184;52.006;5.924;2023-07-31T06:03:37;22.00;;;7.20;;
73841;SDS011;62184;52.006;5.924;2023-07-31T06:06:03;25.52;;;6.57;;
73841;SDS011;62184;52.006;5.924;2023-07-31T06:08:30;22.15;;;7.05;;
73841;SDS011;62184;52.006;5.924;2023-07-31T06:10:56;20.58;;;6.32;;
73841;SDS011;62184;52.006;5.924;2023-07-31T06:13:23;19.70;;;6.43;;
73841;SDS011;62184;52.006;5.924;2023-07-31T06:15:52;24.10;;;6.72;;
73841;SDS011;62184;52.006;5.924;2023-07-31T06:18:18;26.53;;;6.37;;
73841;SDS011;62184;52.006;5.924;2023-07-31T06:20:45;21.02;;;6.75;;
73841;SDS011;62184;52.006;5.924;2023-07-31T06:23:11;20.77;;;6.40;;
73841;SDS011;62184;52.006;5.924;2023-07-31T06:25:38;19.58;;;6.38;;
73841;SDS011;62184;52.006;5.924;2023-07-31T06:28:04;20.87;;;6.40;;
73841;SDS011;62184;52.006;5.924;2023-07-31T06:30:31;20.25;;;6.20;;
73841;SDS011;62184;52.006;5.924;2023-07-31T06:33:00;20.15;;;6.05;;
73841;SDS011;62184;52.006;5.924;2023-07-31T06:35:26;18.88;;;5.97;;
73841;SDS011;62184;52.006;5.924;2023-07-31T06:37:53;16.45;;;5.63;;
73841;SDS011;62184;52.006;5.924;2023-07-31T06:40:19;15.57;;;5.45;;
73841;SDS011;62184;52.006;5.924;2023-07-31T06:42:47;16.33;;;5.80;;
73841;SDS011;62184;52.006;5.924;2023-07-31T06:45:14;18.42;;;5.88;;
73841;SDS011;62184;52.006;5.924;2023-07-31T06:47:40;18.90;;;5.60;;
73841;SDS011;62184;52.006;5.924;2023-07-31T06:50:09;16.50;;;5.22;;
73841;SDS011;62184;52.006;5.924;2023-07-31T06:52:36;18.83;;;5.75;;
73841;SDS011;62184;52.006;5.924;2023-07-31T06:55:02;14.80;;;5.20;;
73841;SDS011;62184;52.006;5.924;2023-07-31T06:57:42;16.20;;;5.37;;
73841;SDS011;62184;52.006;5.924;2023-07-31T07:00:09;14.13;;;5.07;;
73841;SDS011;62184;52.006;5.924;2023-07-31T07:02:37;14.88;;;4.43;;
73841;SDS011;62184;52.006;5.924;2023-07-31T07:05:04;14.23;;;4.68;;
73841;SDS011;62184;52.006;5.924;2023-07-31T07:07:33;14.57;;;4.60;;
73841;SDS011;62184;52.006;5.924;2023-07-31T07:10:00;12.55;;;4.15;;
73841;SDS011;62184;52.006;5.924;2023-07-31T07:12:28;11.63;;;3.95;;
73841;SDS011;62184;52.006;5.924;2023-07-31T07:14:55;10.77;;;3.90;;
73841;SDS011;62184;52.006;5.924;2023-07-31T07:17:22;11.00;;;3.60;;
73841;SDS011;62184;52.006;5.924;2023-07-31T07:19:48;9.77;;;3.15;;
73841;SDS011;62184;52.006;5.924;2023-07-31T07:22:15;8.83;;;3.10;;
73841;SDS011;62184;52.006;5.924;2023-07-31T07:24:44;10.02;;;3.20;;
73841;SDS011;62184;52.006;5.924;2023-07-31T07:27:10;7.63;;;3.00;;
73841;SDS011;62184;52.006;5.924;2023-07-31T07:29:37;7.45;;;2.40;;
73841;SDS011;62184;52.006;5.924;2023-07-31T07:32:05;6.23;;;2.00;;
73841;SDS011;62184;52.006;5.924;2023-07-31T07:34:32;7.50;;;2.28;;
73841;SDS011;62184;52.006;5.924;2023-07-31T07:36:58;6.80;;;2.15;;
73841;SDS011;62184;52.006;5.924;2023-07-31T07:39:25;6.10;;;2.30;;
73841;SDS011;62184;52.006;5.924;2023-07-31T07:41:54;7.85;;;2.40;;
73841;SDS011;62184;52.006;5.924;2023-07-31T07:44:20;5.70;;;1.90;;
73841;SDS011;62184;52.006;5.924;2023-07-31T07:46:47;5.72;;;1.90;;
73841;SDS011;62184;52.006;5.924;2023-07-31T07:49:13;6.47;;;1.90;;
73841;SDS011;62184;52.006;5.924;2023-07-31T07:51:40;4.88;;;1.90;;
73841;SDS011;62184;52.006;5.924;2023-07-31T07:54:06;5.53;;;1.70;;
73841;SDS011;62184;52.006;5.924;2023-07-31T07:56:32;5.72;;;1.95;;
73841;SDS011;62184;52.006;5.924;2023-07-31T07:59:02;5.23;;;1.80;;
73841;SDS011;62184;52.006;5.924;2023-07-31T08:01:28;5.30;;;1.70;;
73841;SDS011;62184;52.006;5.924;2023-07-31T08:03:55;5.55;;;1.75;;
73841;SDS011;62184;52.006;5.924;2023-07-31T08:06:21;5.73;;;1.70;;
73841;SDS011;62184;52.006;5.924;2023-07-31T08:08:47;5.70;;;1.90;;
73841;SDS011;62184;52.006;5.924;2023-07-31T08:11:14;5.32;;;1.80;;
73841;SDS011;62184;52.006;5.924;2023-07-31T08:13:41;4.85;;;1.90;;
73841;SDS011;62184;52.006;5.924;2023-07-31T08:16:10;5.33;;;2.00;;
73841;SDS011;62184;52.006;5.924;2023-07-31T08:18:37;5.95;;;2.15;;
73841;SDS011;62184;52.006;5.924;2023-07-31T08:21:04;5.90;;;2.20;;
73841;SDS011;62184;52.006;5.924;2023-07-31T08:23:31;6.82;;;2.30;;
73841;SDS011;62184;52.006;5.924;2023-07-31T08:25:57;5.95;;;2.38;;
73841;SDS011;62184;52.006;5.924;2023-07-31T08:28:24;7.70;;;2.50;;
73841;SDS011;62184;52.006;5.924;2023-07-31T08:30:50;6.47;;;2.50;;
73841;SDS011;62184;52.006;5.924;2023-07-31T08:33:20;5.80;;;2.47;;
73841;SDS011;62184;52.006;5.924;2023-07-31T08:35:46;7.57;;;2.70;;
73841;SDS011;62184;52.006;5.924;2023-07-31T08:38:12;6.88;;;2.70;;
73841;SDS011;62184;52.006;5.924;2023-07-31T08:40:39;6.18;;;2.58;;
73841;SDS011;62184;52.006;5.924;2023-07-31T08:43:05;6.32;;;2.70;;
73841;SDS011;62184;52.006;5.924;2023-07-31T08:45:34;6.20;;;2.80;;
73841;SDS011;62184;52.006;5.924;2023-07-31T08:48:01;7.13;;;3.27;;
73841;SDS011;62184;52.006;5.924;2023-07-31T08:50:30;6.97;;;3.13;;
73841;SDS011;62184;52.006;5.924;2023-07-31T08:52:58;6.40;;;3.03;;
73841;SDS011;62184;52.006;5.924;2023-07-31T08:55:24;6.30;;;3.00;;
73841;SDS011;62184;52.006;5.924;2023-07-31T08:57:53;6.13;;;2.72;;
73841;SDS011;62184;52.006;5.924;2023-07-31T09:00:22;7.05;;;3.33;;
73841;SDS011;62184;52.006;5.924;2023-07-31T09:02:52;6.40;;;3.28;;
73841;SDS011;62184;52.006;5.924;2023-07-31T09:05:26;6.03;;;2.87;;
73841;SDS011;62184;52.006;5.924;2023-07-31T09:07:56;6.60;;;3.10;;
73841;SDS011;62184;52.006;5.924;2023-07-31T09:10:24;6.25;;;2.97;;
73841;SDS011;62184;52.006;5.924;2023-07-31T09:12:51;6.22;;;2.80;;
73841;SDS011;62184;52.006;5.924;2023-07-31T09:15:18;6.88;;;3.40;;
73841;SDS011;62184;52.006;5.924;2023-07-31T09:17:45;6.10;;;3.00;;
73841;SDS011;62184;52.006;5.924;2023-07-31T09:20:15;7.57;;;3.30;;
73841;SDS011;62184;52.006;5.924;2023-07-31T09:22:44;7.10;;;3.30;;
73841;SDS011;62184;52.006;5.924;2023-07-31T09:25:17;7.10;;;3.40;;
73841;SDS011;62184;52.006;5.924;2023-07-31T09:27:46;7.75;;;4.90;;
73841;SDS011;62184;52.006;5.924;2023-07-31T09:30:17;8.88;;;5.63;;
73841;SDS011;62184;52.006;5.924;2023-07-31T09:32:44;9.47;;;6.37;;
73841;SDS011;62184;52.006;5.924;2023-07-31T09:35:19;9.20;;;7.13;;
73841;SDS011;62184;52.006;5.924;2023-07-31T09:37:48;10.30;;;7.50;;
73841;SDS011;62184;52.006;5.924;2023-07-31T09:40:27;10.13;;;7.45;;
73841;SDS011;62184;52.006;5.924;2023-07-31T09:42:56;11.30;;;8.07;;
73841;SDS011;62184;52.006;5.924;2023-07-31T09:45:24;11.70;;;8.75;;
73841;SDS011;62184;52.006;5.924;2023-07-31T09:47:52;14.60;;;9.68;;
73841;SDS011;62184;52.006;5.924;2023-07-31T09:50:19;13.68;;;9.55;;
73841;SDS011;62184;52.006;5.924;2023-07-31T09:52:48;16.48;;;9.82;;
73841;SDS011;62184;52.006;5.924;2023-07-31T09:55:14;14.65;;;10.65;;
73841;SDS011;62184;52.006;5.924;2023-07-31T09:57:44;15.88;;;10.70;;
73841;SDS011;62184;52.006;5.924;2023-07-31T10:00:13;15.18;;;9.98;;
73841;SDS011;62184;52.006;5.924;2023-07-31T10:02:43;14.05;;;10.30;;
73841;SDS011;62184;52.006;5.924;2023-07-31T10:05:12;14.88;;;10.90;;
73841;SDS011;62184;52.006;5.924;2023-07-31T10:07:41;15.63;;;10.90;;
73841;SDS011;62184;52.006;5.924;2023-07-31T10:10:15;15.17;;;11.20;;
73841;SDS011;62184;52.006;5.924;2023-07-31T10:12:46;17.27;;;11.25;;
73841;SDS011;62184;52.006;5.924;2023-07-31T10:15:14;17.05;;;11.60;;
73841;SDS011;62184;52.006;5.924;2023-07-31T10:17:42;15.25;;;11.80;;
73841;SDS011;62184;52.006;5.924;2023-07-31T10:20:09;16.60;;;11.75;;
73841;SDS011;62184;52.006;5.924;2023-07-31T10:22:37;15.45;;;11.50;;
73841;SDS011;62184;52.006;5.924;2023-07-31T10:25:05;15.85;;;12.45;;
73841;SDS011;62184;52.006;5.924;2023-07-31T10:27:35;15.55;;;12.25;;
73841;SDS011;62184;52.006;5.924;2023-07-31T10:30:07;17.15;;;12.10;;
73841;SDS011;62184;52.006;5.924;2023-07-31T10:32:38;15.88;;;12.60;;
73841;SDS011;62184;52.006;5.924;2023-07-31T10:35:07;17.33;;;12.65;;
73841;SDS011;62184;52.006;5.924;2023-07-31T10:37:36;15.38;;;12.77;;
73841;SDS011;62184;52.006;5.924;2023-07-31T10:40:05;17.38;;;13.60;;
73841;SDS011;62184;52.006;5.924;2023-07-31T10:42:36;17.25;;;13.90;;
73841;SDS011;62184;52.006;5.924;2023-07-31T10:45:13;20.77;;;15.45;;
73841;SDS011;62184;52.006;5.924;2023-07-31T10:47:49;17.63;;;14.52;;
73841;SDS011;62184;52.006;5.924;2023-07-31T10:50:23;18.42;;;14.43;;
73841;SDS011;62184;52.006;5.924;2023-07-31T10:52:50;18.23;;;14.80;;
73841;SDS011;62184;52.006;5.924;2023-07-31T10:55:24;18.83;;;15.00;;
73841;SDS011;62184;52.006;5.924;2023-07-31T10:57:57;19.27;;;15.23;;
73841;SDS011;62184;52.006;5.924;2023-07-31T11:00:33;18.15;;;15.63;;
73841;SDS011;62184;52.006;5.924;2023-07-31T11:03:03;17.50;;;15.63;;
73841;SDS011;62184;52.006;5.924;2023-07-31T11:08:16;16.80;;;14.93;;
73841;SDS011;62184;52.006;5.924;2023-07-31T11:10:45;16.88;;;14.60;;
73841;SDS011;62184;52.006;5.924;2023-07-31T11:13:14;17.50;;;15.02;;
73841;SDS011;62184;52.006;5.924;2023-07-31T11:15:43;16.67;;;14.30;;
73841;SDS011;62184;52.006;5.924;2023-07-31T11:18:10;18.00;;;14.98;;
73841;SDS011;62184;52.006;5.924;2023-07-31T11:20:37;18.20;;;14.60;;
73841;SDS011;62184;52.006;5.924;2023-07-31T11:23:05;18.55;;;15.02;;
73841;SDS011;62184;52.006;5.924;2023-07-31T11:25:35;16.83;;;15.03;;
73841;SDS011;62184;52.006;5.924;2023-07-31T11:28:03;17.08;;;13.80;;
73841;SDS011;62184;52.006;5.924;2023-07-31T11:30:32;16.63;;;14.75;;
73841;SDS011;62184;52.006;5.924;2023-07-31T11:33:02;17.13;;;14.93;;
73841;SDS011;62184;52.006;5.924;2023-07-31T11:35:31;17.55;;;14.82;;
73841;SDS011;62184;52.006;5.924;2023-07-31T11:37:59;18.55;;;14.27;;
73841;SDS011;62184;52.006;5.924;2023-07-31T11:40:26;18.88;;;15.57;;
73841;SDS011;62184;52.006;5.924;2023-07-31T11:42:53;17.85;;;15.38;;
73841;SDS011;62184;52.006;5.924;2023-07-31T11:45:23;18.60;;;14.88;;
73841;SDS011;62184;52.006;5.924;2023-07-31T11:47:52;15.93;;;14.20;;
73841;SDS011;62184;52.006;5.924;2023-07-31T11:50:24;17.55;;;14.70;;
73841;SDS011;62184;52.006;5.924;2023-07-31T11:52:50;15.82;;;14.10;;
73841;SDS011;62184;52.006;5.924;2023-07-31T11:55:23;15.65;;;14.02;;
73841;SDS011;62184;52.006;5.924;2023-07-31T11:57:51;17.23;;;14.23;;
73841;SDS011;62184;52.006;5.924;2023-07-31T12:00:21;15.60;;;13.95;;
73841;SDS011;62184;52.006;5.924;2023-07-31T12:02:47;15.63;;;13.90;;
73841;SDS011;62184;52.006;5.924;2023-07-31T12:05:15;15.87;;;13.90;;
73841;SDS011;62184;52.006;5.924;2023-07-31T12:07:48;16.67;;;14.00;;
73841;SDS011;62184;52.006;5.924;2023-07-31T12:10:24;17.35;;;14.00;;
73841;SDS011;62184;52.006;5.924;2023-07-31T12:12:59;16.05;;;14.00;;
73841;SDS011;62184;52.006;5.924;2023-07-31T12:15:37;15.13;;;13.52;;
73841;SDS011;62184;52.006;5.924;2023-07-31T12:18:06;15.32;;;13.70;;
73841;SDS011;62184;52.006;5.924;2023-07-31T12:20:35;15.82;;;13.40;;
73841;SDS011;62184;52.006;5.924;2023-07-31T12:23:09;14.25;;;12.70;;
73841;SDS011;62184;52.006;5.924;2023-07-31T12:25:40;14.43;;;12.53;;
73841;SDS011;62184;52.006;5.924;2023-07-31T12:28:06;15.15;;;13.43;;
73841;SDS011;62184;52.006;5.924;2023-07-31T12:30:34;15.95;;;13.57;;
73841;SDS011;62184;52.006;5.924;2023-07-31T12:33:04;14.30;;;12.80;;
73841;SDS011;62184;52.006;5.924;2023-07-31T12:35:34;14.55;;;13.00;;
73841;SDS011;62184;52.006;5.924;2023-07-31T12:38:02;14.70;;;13.23;;
73841;SDS011;62184;52.006;5.924;2023-07-31T12:40:32;14.70;;;13.20;;
73841;SDS011;62184;52.006;5.924;2023-07-31T12:43:00;15.27;;;13.68;;
73841;SDS011;62184;52.006;5.924;2023-07-31T12:45:27;15.30;;;13.80;;
73841;SDS011;62184;52.006;5.924;2023-07-31T12:47:54;14.55;;;13.00;;
73841;SDS011;62184;52.006;5.924;2023-07-31T12:50:20;16.55;;;13.85;;
73841;SDS011;62184;52.006;5.924;2023-07-31T12:52:47;15.83;;;14.17;;
73841;SDS011;62184;52.006;5.924;2023-07-31T12:55:13;16.65;;;14.02;;
73841;SDS011;62184;52.006;5.924;2023-07-31T12:57:42;17.17;;;14.50;;
73841;SDS011;62184;52.006;5.924;2023-07-31T13:00:10;17.60;;;15.13;;
73841;SDS011;62184;52.006;5.924;2023-07-31T13:02:38;16.60;;;14.60;;
73841;SDS011;62184;52.006;5.924;2023-07-31T13:05:05;15.93;;;14.15;;
73841;SDS011;62184;52.006;5.924;2023-07-31T13:07:32;15.50;;;13.77;;
73841;SDS011;62184;52.006;5.924;2023-07-31T13:09:58;15.70;;;13.95;;
73841;SDS011;62184;52.006;5.924;2023-07-31T13:12:25;16.00;;;13.68;;
73841;SDS011;62184;52.006;5.924;2023-07-31T13:14:54;15.50;;;13.52;;
73841;SDS011;62184;52.006;5.924;2023-07-31T13:17:21;14.85;;;13.25;;
73841;SDS011;62184;52.006;5.924;2023-07-31T13:19:47;15.07;;;13.15;;
73841;SDS011;62184;52.006;5.924;2023-07-31T13:22:14;14.82;;;13.30;;
73841;SDS011;62184;52.006;5.924;2023-07-31T13:24:41;15.00;;;13.40;;
73841;SDS011;62184;52.006;5.924;2023-07-31T13:27:07;15.02;;;13.43;;
73841;SDS011;62184;52.006;5.924;2023-07-31T13:29:34;15.77;;;14.02;;
73841;SDS011;62184;52.006;5.924;2023-07-31T13:32:03;16.75;;;13.98;;
73841;SDS011;62184;52.006;5.924;2023-07-31T13:34:31;14.88;;;12.98;;
73841;SDS011;62184;52.006;5.924;2023-07-31T13:36:57;14.80;;;13.20;;
73841;SDS011;62184;52.006;5.924;2023-07-31T13:39:24;14.30;;;12.80;;
73841;SDS011;62184;52.006;5.924;2023-07-31T13:41:50;14.05;;;12.63;;
73841;SDS011;62184;52.006;5.924;2023-07-31T13:44:17;14.35;;;12.95;;
73841;SDS011;62184;52.006;5.924;2023-07-31T13:46:43;14.30;;;12.80;;
73841;SDS011;62184;52.006;5.924;2023-07-31T13:49:12;13.93;;;12.43;;
73841;SDS011;62184;52.006;5.924;2023-07-31T13:51:39;14.70;;;13.20;;
73841;SDS011;62184;52.006;5.924;2023-07-31T13:54:05;13.90;;;12.60;;
73841;SDS011;62184;52.006;5.924;2023-07-31T13:56:32;14.80;;;13.10;;
73841;SDS011;62184;52.006;5.924;2023-07-31T13:58:59;14.70;;;13.15;;
73841;SDS011;62184;52.006;5.924;2023-07-31T14:01:25;14.47;;;12.97;;
73841;SDS011;62184;52.006;5.924;2023-07-31T14:03:52;14.07;;;12.68;;
73841;SDS011;62184;52.006;5.924;2023-07-31T14:06:21;14.18;;;12.35;;
73841;SDS011;62184;52.006;5.924;2023-07-31T14:08:48;14.35;;;12.88;;
73841;SDS011;62184;52.006;5.924;2023-07-31T14:11:14;14.30;;;12.80;;
73841;SDS011;62184;52.006;5.924;2023-07-31T14:13:41;15.70;;;13.55;;
73841;SDS011;62184;52.006;5.924;2023-07-31T14:16:07;16.27;;;13.48;;
73841;SDS011;62184;52.006;5.924;2023-07-31T14:18:34;15.07;;;13.30;;
73841;SDS011;62184;52.006;5.924;2023-07-31T14:21:00;17.23;;;13.17;;
73841;SDS011;62184;52.006;5.924;2023-07-31T14:23:29;16.15;;;13.48;;
73841;SDS011;62184;52.006;5.924;2023-07-31T14:25:56;16.97;;;13.97;;
73841;SDS011;62184;52.006;5.924;2023-07-31T14:28:22;15.95;;;13.57;;
73841;SDS011;62184;52.006;5.924;2023-07-31T14:30:49;16.98;;;13.82;;
73841;SDS011;62184;52.006;5.924;2023-07-31T14:33:15;17.00;;;13.60;;
73841;SDS011;62184;52.006;5.924;2023-07-31T14:35:42;17.83;;;13.83;;
73841;SDS011;62184;52.006;5.924;2023-07-31T14:38:08;20.75;;;14.05;;
73841;SDS011;62184;52.006;5.924;2023-07-31T14:40:37;18.27;;;14.63;;